Stevensville, Maryland
Current Conditions -  °F | °C
As of 3:54 PM on Saturday 22 Nov 2014 (Local Time) from KNAK Reporting Station
Broken Clouds Broken Clouds  
Wind Chill: 44°   Ceiling: 10000
Heat Index: 48°   Visibility: 10mi
Dew Point: 15°   Wind: 8mph
Humidity: 27%   Direction: 200°SSW
Pressure: 30.33"   Gusts: NA
Location:  38.98°N, 76.31°W
Report Text: KNAK 222054Z AUTO 20007KT 10SM BKN100 09/M09 A3033 RMK AO2 SLP274 T00891094 56022
Loading
Personal Weather Stations






























Interactive Weather Map New forecast layout! Learn more

10-Day Weather Forecast

Advertisements
Track Severe Weather on mobile